createdAt,value
2022-12-31T00:01:59.509Z,55.56
2022-12-31T00:04:27.344Z,55.70
2022-12-31T00:06:55.179Z,55.33
2022-12-31T00:09:24.383Z,55.42
2022-12-31T00:11:52.158Z,55.82
2022-12-31T00:14:19.901Z,55.50
2022-12-31T00:16:47.958Z,55.87
2022-12-31T00:19:15.946Z,56.02
2022-12-31T00:21:44.627Z,55.41
2022-12-31T00:24:12.763Z,55.75
2022-12-31T00:26:42.003Z,55.96
2022-12-31T00:29:11.158Z,55.63
2022-12-31T00:31:39.953Z,55.68
2022-12-31T00:34:08.015Z,56.00
2022-12-31T00:36:37.660Z,56.17
2022-12-31T00:39:08.237Z,56.42
2022-12-31T00:41:36.223Z,56.03
2022-12-31T00:44:05.524Z,55.99
2022-12-31T00:46:33.604Z,56.33
2022-12-31T00:49:01.589Z,55.93
2022-12-31T00:51:30.421Z,56.16
2022-12-31T00:53:59.021Z,56.21
2022-12-31T00:56:29.573Z,55.96
2022-12-31T00:58:57.564Z,55.89
2022-12-31T01:01:28.325Z,56.19
2022-12-31T01:04:00.380Z,55.85
2022-12-31T01:06:28.377Z,56.33
2022-12-31T01:08:56.363Z,56.30
2022-12-31T01:11:29.168Z,56.21
2022-12-31T01:13:59.409Z,56.25
2022-12-31T01:16:30.454Z,56.42
2022-12-31T01:19:00.034Z,55.88
2022-12-31T01:21:31.589Z,55.81
2022-12-31T01:23:59.745Z,55.96
2022-12-31T01:26:28.500Z,56.37
2022-12-31T01:28:56.568Z,55.86
2022-12-31T01:31:25.755Z,56.02
2022-12-31T01:33:55.499Z,55.97
2022-12-31T01:36:26.113Z,55.88
2022-12-31T01:38:55.362Z,55.88
2022-12-31T01:41:25.820Z,55.99
2022-12-31T01:43:56.432Z,56.01
2022-12-31T01:46:30.256Z,56.11
2022-12-31T01:49:02.957Z,56.36
2022-12-31T01:51:34.484Z,56.59
2022-12-31T01:54:04.910Z,56.20
2022-12-31T01:56:33.792Z,56.22
2022-12-31T01:59:01.958Z,56.74
2022-12-31T02:01:34.017Z,56.42
2022-12-31T02:04:07.915Z,56.57
2022-12-31T02:06:40.226Z,56.90
2022-12-31T02:09:08.782Z,56.76
2022-12-31T02:11:38.164Z,56.92
2022-12-31T02:14:10.643Z,56.84
2022-12-31T02:16:47.121Z,57.55
2022-12-31T02:19:48.908Z,57.29
2022-12-31T02:22:26.067Z,57.01
2022-12-31T02:25:38.067Z,57.60
2022-12-31T02:28:20.988Z,56.92
2022-12-31T02:30:55.495Z,56.89
2022-12-31T02:33:27.615Z,56.95
2022-12-31T02:35:59.089Z,56.65
2022-12-31T02:38:31.125Z,56.56
2022-12-31T02:40:59.871Z,56.92
2022-12-31T02:43:27.735Z,56.76
2022-12-31T02:46:08.961Z,56.80
2022-12-31T02:48:47.739Z,56.51
2022-12-31T02:51:30.303Z,56.41
2022-12-31T02:54:23.651Z,55.79
2022-12-31T02:57:01.740Z,56.27
2022-12-31T02:59:53.537Z,55.99
2022-12-31T03:02:24.900Z,56.18
2022-12-31T03:04:55.826Z,55.88
2022-12-31T03:07:26.346Z,55.63
2022-12-31T03:09:55.021Z,55.71
2022-12-31T03:12:44.847Z,55.87
2022-12-31T03:15:20.779Z,55.93
2022-12-31T03:17:56.911Z,55.22
2022-12-31T03:20:46.145Z,55.32
2022-12-31T03:23:18.998Z,54.99
2022-12-31T03:25:45.688Z,55.98
2022-12-31T03:28:15.951Z,55.47
2022-12-31T03:30:46.566Z,55.28
2022-12-31T03:33:16.644Z,55.00
2022-12-31T03:35:46.233Z,55.03
2022-12-31T03:38:14.170Z,55.08
2022-12-31T03:40:44.828Z,55.20
2022-12-31T03:43:12.645Z,54.70
2022-12-31T03:45:40.562Z,55.17
2022-12-31T03:48:10.572Z,55.14
2022-12-31T03:50:39.774Z,54.72
2022-12-31T03:53:07.981Z,54.51
2022-12-31T03:55:35.855Z,54.97
2022-12-31T03:58:03.659Z,54.78
2022-12-31T04:00:31.815Z,54.84
2022-12-31T04:02:59.713Z,54.26
2022-12-31T04:05:27.610Z,54.38
2022-12-31T04:07:56.817Z,54.16
2022-12-31T04:10:24.588Z,54.31
2022-12-31T04:12:52.474Z,54.18
2022-12-31T04:15:22.119Z,54.05
2022-12-31T04:17:50.269Z,54.05
2022-12-31T04:20:18.247Z,54.34
2022-12-31T04:22:46.064Z,54.06
2022-12-31T04:25:15.387Z,53.91
2022-12-31T04:27:44.477Z,53.93
2022-12-31T04:30:14.247Z,54.06
2022-12-31T04:32:42.174Z,53.96
2022-12-31T04:35:11.505Z,53.95
2022-12-31T04:37:39.633Z,53.99
2022-12-31T04:40:08.916Z,54.11
2022-12-31T04:42:38.288Z,53.51
2022-12-31T04:45:07.088Z,53.84
2022-12-31T04:47:34.956Z,53.50
2022-12-31T04:50:02.724Z,53.41
2022-12-31T04:52:30.641Z,53.46
2022-12-31T04:54:58.397Z,53.84
2022-12-31T04:57:26.204Z,53.41
2022-12-31T04:59:55.599Z,53.29
2022-12-31T05:02:23.465Z,53.12
2022-12-31T05:04:51.352Z,53.09
2022-12-31T05:07:19.556Z,53.20
2022-12-31T05:09:47.381Z,53.43
2022-12-31T05:12:15.178Z,53.34
2022-12-31T05:14:43.047Z,53.13
2022-12-31T05:17:12.198Z,53.32
2022-12-31T05:19:39.980Z,53.14
2022-12-31T05:22:25.324Z,52.79
2022-12-31T05:24:53.174Z,53.26
2022-12-31T05:27:20.988Z,52.63
2022-12-31T05:29:48.999Z,52.91
2022-12-31T05:32:18.215Z,52.88
2022-12-31T05:34:46.076Z,52.44
2022-12-31T05:37:13.831Z,52.65
2022-12-31T05:39:41.599Z,52.35
2022-12-31T05:42:09.379Z,52.40
2022-12-31T05:44:37.253Z,52.39
2022-12-31T05:47:05.307Z,52.56
2022-12-31T05:49:34.466Z,52.62
2022-12-31T05:52:02.261Z,52.33
2022-12-31T05:54:30.117Z,52.60
2022-12-31T05:56:57.919Z,52.25
2022-12-31T05:59:26.286Z,52.35
2022-12-31T06:01:54.145Z,52.11
2022-12-31T06:04:22.151Z,52.08
2022-12-31T06:06:51.360Z,52.30
2022-12-31T06:09:21.285Z,52.03
2022-12-31T06:11:50.379Z,51.94
2022-12-31T06:14:18.428Z,51.93
2022-12-31T06:16:46.180Z,51.95
2022-12-31T06:19:13.949Z,51.87
2022-12-31T06:21:41.714Z,52.34
2022-12-31T06:24:10.886Z,51.95
2022-12-31T06:26:38.725Z,51.86
2022-12-31T06:29:06.852Z,52.27
2022-12-31T06:31:35.013Z,51.96
2022-12-31T06:34:02.978Z,52.30
2022-12-31T06:36:30.864Z,52.21
2022-12-31T06:39:00.525Z,51.56
2022-12-31T06:41:29.723Z,52.14
2022-12-31T06:43:57.591Z,51.59
2022-12-31T06:46:27.085Z,52.08
2022-12-31T06:48:54.958Z,51.49
2022-12-31T06:51:23.412Z,51.99
2022-12-31T06:53:52.629Z,51.50
2022-12-31T06:56:26.519Z,51.55
2022-12-31T06:59:00.717Z,51.82
2022-12-31T07:01:41.011Z,51.56
2022-12-31T07:04:30.693Z,50.88
2022-12-31T07:07:08.087Z,51.58
2022-12-31T07:09:40.627Z,51.36
2022-12-31T07:12:19.854Z,51.57
2022-12-31T07:14:55.648Z,51.39
2022-12-31T07:17:34.241Z,51.20
2022-12-31T07:20:06.400Z,51.05
2022-12-31T07:22:34.837Z,51.69
2022-12-31T07:25:03.356Z,50.94
2022-12-31T07:27:43.778Z,50.81
2022-12-31T07:30:17.175Z,50.71
2022-12-31T07:33:12.066Z,50.87
2022-12-31T07:35:50.551Z,50.84
2022-12-31T07:38:27.031Z,50.85
2022-12-31T07:41:09.820Z,50.60
2022-12-31T07:43:51.379Z,50.70
2022-12-31T07:46:29.406Z,50.22
2022-12-31T07:48:57.906Z,51.05
2022-12-31T07:51:26.508Z,50.97
2022-12-31T07:53:54.394Z,50.61
2022-12-31T07:56:22.263Z,50.43
2022-12-31T07:59:02.421Z,50.33
2022-12-31T08:01:44.594Z,49.68
2022-12-31T08:04:23.728Z,49.79
2022-12-31T08:07:01.577Z,49.99
2022-12-31T08:09:40.464Z,50.13
2022-12-31T08:12:09.619Z,50.29
2022-12-31T08:14:44.139Z,49.39
2022-12-31T08:17:16.885Z,49.56
2022-12-31T08:19:45.740Z,50.77
2022-12-31T08:22:42.139Z,49.85
2022-12-31T08:25:19.382Z,49.46
2022-12-31T08:27:59.438Z,49.72
2022-12-31T08:30:37.048Z,49.50
2022-12-31T08:33:16.368Z,49.07
2022-12-31T08:36:02.493Z,49.17
2022-12-31T08:38:39.719Z,49.45
2022-12-31T08:41:14.764Z,49.04
2022-12-31T08:43:51.179Z,48.82
2022-12-31T08:46:27.154Z,49.25
2022-12-31T08:49:00.021Z,49.20
2022-12-31T08:51:35.589Z,49.43
2022-12-31T08:54:04.259Z,49.09
2022-12-31T08:56:50.498Z,49.01
2022-12-31T08:59:34.951Z,48.96
2022-12-31T09:02:46.150Z,48.97
2022-12-31T09:05:25.879Z,48.86
2022-12-31T09:08:03.889Z,48.45
2022-12-31T09:10:36.014Z,48.75
2022-12-31T09:13:25.984Z,48.33
2022-12-31T09:16:03.637Z,48.75
2022-12-31T09:18:38.961Z,49.03
2022-12-31T09:21:27.147Z,48.44
2022-12-31T09:23:55.651Z,48.94
2022-12-31T09:26:40.399Z,48.23
2022-12-31T09:29:20.128Z,48.32
2022-12-31T09:31:55.159Z,48.70
2022-12-31T09:34:27.524Z,48.55
2022-12-31T09:37:00.891Z,48.81
2022-12-31T09:39:37.372Z,48.92
2022-12-31T09:42:34.181Z,48.70
2022-12-31T09:45:29.528Z,48.18
2022-12-31T09:48:20.136Z,48.42
2022-12-31T09:51:19.172Z,48.49
2022-12-31T09:54:15.048Z,48.53
2022-12-31T09:56:50.142Z,48.27
2022-12-31T09:59:27.787Z,48.59
2022-12-31T10:02:01.687Z,48.38
2022-12-31T10:04:53.473Z,47.69
2022-12-31T10:07:32.824Z,48.32
2022-12-31T10:10:08.529Z,47.79
2022-12-31T10:12:59.725Z,47.40
2022-12-31T10:15:53.694Z,47.47
2022-12-31T10:18:38.424Z,47.59
2022-12-31T10:21:23.659Z,47.18
2022-12-31T10:24:05.901Z,47.26
2022-12-31T10:26:55.711Z,47.41
2022-12-31T10:29:37.991Z,47.42
2022-12-31T10:32:31.824Z,47.59
2022-12-31T10:35:16.372Z,47.86
2022-12-31T10:37:51.350Z,47.54
2022-12-31T10:40:31.055Z,47.08
2022-12-31T10:43:36.470Z,47.47
2022-12-31T10:46:29.942Z,47.42
2022-12-31T10:49:24.583Z,46.90
2022-12-31T10:52:22.808Z,46.96
2022-12-31T10:55:24.827Z,47.12
2022-12-31T10:58:33.363Z,47.35
2022-12-31T11:01:09.451Z,47.25
2022-12-31T11:04:02.261Z,46.73
2022-12-31T11:07:18.900Z,47.31
2022-12-31T11:10:11.774Z,46.69
2022-12-31T11:13:12.355Z,46.75
2022-12-31T11:16:02.196Z,46.95
2022-12-31T11:18:39.340Z,47.23
2022-12-31T11:21:27.811Z,46.61
2022-12-31T11:24:06.339Z,46.46
2022-12-31T11:26:48.970Z,46.42
2022-12-31T11:29:32.033Z,47.05
2022-12-31T11:32:08.771Z,46.64
2022-12-31T11:34:54.389Z,46.58
2022-12-31T11:37:32.827Z,46.37
2022-12-31T11:40:17.123Z,46.56
2022-12-31T11:42:55.411Z,46.20
2022-12-31T11:45:38.780Z,46.17
2022-12-31T11:48:30.067Z,46.36
2022-12-31T11:51:17.642Z,46.06
2022-12-31T11:54:40.020Z,46.12
2022-12-31T11:57:19.019Z,46.25
2022-12-31T11:59:47.885Z,46.51
2022-12-31T12:02:45.060Z,46.21
2022-12-31T12:05:17.709Z,45.85
2022-12-31T12:07:54.976Z,46.69
2022-12-31T12:10:35.539Z,46.23
2022-12-31T12:13:13.623Z,45.36
2022-12-31T12:15:45.818Z,45.94
2022-12-31T12:18:28.209Z,45.79
2022-12-31T12:21:06.811Z,45.55
2022-12-31T12:23:35.016Z,46.16
2022-12-31T12:26:03.127Z,45.92
2022-12-31T12:28:44.510Z,45.48
2022-12-31T12:31:21.753Z,45.07
2022-12-31T12:33:51.129Z,45.50
2022-12-31T12:37:15.453Z,45.42
2022-12-31T12:39:57.761Z,45.56
2022-12-31T12:42:25.751Z,46.18
2022-12-31T12:45:03.230Z,45.57
2022-12-31T12:47:32.275Z,46.21
2022-12-31T12:50:04.906Z,45.66
2022-12-31T12:53:02.366Z,45.45
2022-12-31T12:55:44.409Z,45.84
2022-12-31T12:58:27.737Z,45.53
2022-12-31T13:01:05.162Z,45.80
2022-12-31T13:04:33.566Z,45.67
2022-12-31T13:07:09.875Z,45.65
2022-12-31T13:09:54.157Z,45.11
2022-12-31T13:12:37.888Z,45.21
2022-12-31T13:15:23.251Z,45.53
2022-12-31T13:18:02.283Z,45.24
2022-12-31T13:20:35.806Z,45.48
2022-12-31T13:23:15.161Z,45.30
2022-12-31T13:25:57.036Z,45.20
2022-12-31T13:28:26.062Z,45.30
2022-12-31T13:31:04.845Z,45.13
2022-12-31T13:33:39.358Z,45.59
2022-12-31T13:36:10.033Z,46.47
2022-12-31T13:38:41.647Z,45.40
2022-12-31T13:41:22.998Z,44.85
2022-12-31T13:43:58.038Z,45.17
2022-12-31T13:46:35.065Z,45.06
2022-12-31T13:49:06.482Z,45.24
2022-12-31T13:51:42.501Z,44.65
2022-12-31T13:54:21.388Z,44.80
2022-12-31T13:56:53.181Z,44.44
2022-12-31T13:59:25.153Z,44.55
2022-12-31T14:02:04.402Z,44.38
2022-12-31T14:04:43.649Z,44.59
2022-12-31T14:07:20.696Z,44.87
2022-12-31T14:09:49.151Z,44.81
2022-12-31T14:12:33.329Z,44.72
2022-12-31T14:15:08.892Z,44.56
2022-12-31T14:17:42.514Z,44.75
2022-12-31T14:20:24.635Z,44.86
2022-12-31T14:23:03.766Z,44.62
2022-12-31T14:25:36.358Z,45.27
2022-12-31T14:28:11.220Z,44.84
2022-12-31T14:30:43.595Z,45.12
2022-12-31T14:33:40.601Z,45.17
2022-12-31T14:36:19.165Z,45.01
2022-12-31T14:39:02.136Z,45.45
2022-12-31T14:45:06.053Z,45.29
2022-12-31T14:47:46.097Z,45.68
2022-12-31T14:50:17.193Z,45.32
2022-12-31T14:52:52.056Z,45.70
2022-12-31T14:55:26.661Z,45.45
2022-12-31T14:58:26.500Z,45.76
2022-12-31T15:00:53.799Z,45.70
2022-12-31T15:03:27.295Z,45.52
2022-12-31T15:06:02.927Z,45.85
2022-12-31T15:08:41.854Z,45.53
2022-12-31T15:11:23.672Z,46.17
2022-12-31T15:14:16.284Z,46.13
2022-12-31T15:16:54.232Z,46.19
2022-12-31T15:19:46.155Z,46.14
2022-12-31T15:22:28.423Z,45.91
2022-12-31T15:24:56.615Z,45.96
2022-12-31T15:27:35.220Z,46.15
2022-12-31T15:30:04.021Z,45.89
2022-12-31T15:32:37.922Z,45.73
2022-12-31T15:35:27.068Z,46.32
2022-12-31T15:38:02.891Z,45.74
2022-12-31T15:40:31.152Z,46.11
2022-12-31T15:43:03.948Z,46.01
2022-12-31T15:45:36.340Z,46.27
2022-12-31T15:48:22.087Z,45.99
2022-12-31T15:50:53.029Z,46.21
2022-12-31T15:53:29.792Z,45.92
2022-12-31T15:56:03.030Z,45.84
2022-12-31T15:58:35.655Z,45.83
2022-12-31T16:01:09.819Z,46.60
2022-12-31T16:03:44.869Z,45.53
2022-12-31T16:06:15.716Z,45.78
2022-12-31T16:08:47.501Z,45.73
2022-12-31T16:11:16.224Z,45.60
2022-12-31T16:13:47.026Z,45.66
2022-12-31T16:16:22.669Z,44.89
2022-12-31T16:18:53.143Z,45.43
2022-12-31T16:21:27.189Z,45.23
2022-12-31T16:23:57.952Z,44.86
2022-12-31T16:26:32.429Z,44.60
2022-12-31T16:29:01.153Z,45.28
2022-12-31T16:31:30.448Z,45.05
2022-12-31T16:34:14.754Z,44.99
2022-12-31T16:36:42.919Z,44.97
2022-12-31T16:39:29.596Z,44.85
2022-12-31T16:42:19.786Z,44.70
2022-12-31T16:44:47.785Z,44.71
2022-12-31T16:47:19.876Z,44.99
2022-12-31T16:49:51.941Z,44.58
2022-12-31T16:52:28.091Z,44.43
2022-12-31T16:54:57.750Z,44.57
2022-12-31T16:57:28.314Z,44.84
2022-12-31T17:00:02.256Z,43.86
2022-12-31T17:02:37.827Z,43.69
2022-12-31T17:05:19.695Z,43.75
2022-12-31T17:07:47.455Z,44.11
2022-12-31T17:10:23.314Z,43.90
2022-12-31T17:15:45.691Z,43.98
2022-12-31T17:18:19.279Z,43.66
2022-12-31T17:20:50.907Z,44.00
2022-12-31T17:23:26.321Z,43.52
2022-12-31T17:26:01.618Z,43.56
2022-12-31T17:28:38.727Z,43.18
2022-12-31T17:31:31.258Z,43.64
2022-12-31T17:34:21.587Z,43.04
2022-12-31T17:36:59.214Z,43.22
2022-12-31T17:39:28.603Z,43.34
2022-12-31T17:41:58.629Z,43.35
2022-12-31T17:44:29.099Z,43.13
2022-12-31T17:46:57.002Z,43.30
2022-12-31T17:49:32.378Z,42.63
2022-12-31T17:52:01.572Z,42.84
2022-12-31T17:54:29.345Z,42.92
2022-12-31T17:56:57.349Z,42.92
2022-12-31T17:59:29.609Z,42.65
2022-12-31T18:02:01.060Z,42.61
2022-12-31T18:04:29.374Z,42.89
2022-12-31T18:06:57.147Z,42.50
2022-12-31T18:09:26.466Z,42.86
2022-12-31T18:11:58.230Z,42.64
2022-12-31T18:14:29.188Z,42.34
2022-12-31T18:16:56.946Z,42.78
2022-12-31T18:19:54.424Z,42.18
2022-12-31T18:22:16.764Z,41.92
2022-12-31T18:24:46.125Z,42.14
2022-12-31T18:27:17.484Z,41.87
2022-12-31T18:29:46.171Z,41.86
2022-12-31T18:32:21.045Z,41.79
2022-12-31T18:34:49.277Z,41.89
2022-12-31T18:37:21.742Z,41.67
2022-12-31T18:39:51.559Z,42.19
2022-12-31T18:42:20.172Z,41.73
2022-12-31T18:44:48.018Z,41.65
2022-12-31T18:47:18.730Z,41.54
2022-12-31T18:49:48.535Z,41.70
2022-12-31T18:52:17.494Z,41.46
2022-12-31T18:54:45.283Z,41.98
2022-12-31T18:57:16.082Z,41.57
2022-12-31T18:59:44.070Z,41.79
2022-12-31T19:02:16.677Z,41.36
2022-12-31T19:04:44.571Z,41.82
2022-12-31T19:07:12.469Z,41.34
2022-12-31T19:09:50.076Z,41.69
2022-12-31T19:12:22.487Z,41.44
2022-12-31T19:14:50.497Z,41.35
2022-12-31T19:19:11.524Z,40.92
2022-12-31T19:21:39.944Z,41.10
2022-12-31T19:24:13.889Z,40.00
2022-12-31T19:26:43.528Z,40.95
2022-12-31T19:29:17.667Z,40.02
2022-12-31T19:31:46.058Z,40.83
2022-12-31T19:34:15.231Z,40.65
2022-12-31T19:36:44.209Z,40.74
2022-12-31T19:39:18.306Z,39.43
2022-12-31T19:41:51.708Z,40.49
2022-12-31T19:44:24.237Z,40.66
2022-12-31T19:46:52.048Z,40.04
2022-12-31T19:49:21.281Z,40.36
2022-12-31T19:51:49.215Z,40.08
2022-12-31T19:54:17.028Z,40.37
2022-12-31T19:56:44.817Z,40.44
2022-12-31T19:59:12.863Z,39.59
2022-12-31T20:01:40.795Z,39.64
2022-12-31T20:04:08.743Z,39.57
2022-12-31T20:06:38.050Z,39.34
2022-12-31T20:09:06.591Z,39.47
2022-12-31T20:11:34.502Z,39.33
2022-12-31T20:14:02.317Z,39.79
2022-12-31T20:16:31.725Z,39.18
2022-12-31T20:18:59.836Z,39.20
2022-12-31T20:21:29.706Z,39.15
2022-12-31T20:23:58.964Z,38.98
2022-12-31T20:26:27.076Z,38.82
2022-12-31T20:28:54.933Z,38.88
2022-12-31T20:31:25.995Z,38.80
2022-12-31T20:33:54.964Z,38.94
2022-12-31T20:36:24.127Z,38.88
2022-12-31T20:38:52.252Z,38.89
2022-12-31T20:41:23.205Z,38.13
2022-12-31T20:43:51.409Z,38.30
2022-12-31T20:46:21.527Z,38.50
2022-12-31T20:48:51.089Z,38.83
2022-12-31T20:51:20.328Z,38.48
2022-12-31T20:53:49.300Z,38.06
2022-12-31T20:56:18.204Z,38.27
2022-12-31T20:58:47.687Z,38.14
2022-12-31T21:01:16.833Z,37.76
2022-12-31T21:06:35.704Z,37.84
2022-12-31T21:09:05.883Z,37.79
2022-12-31T21:11:51.161Z,38.09
2022-12-31T21:14:20.955Z,37.18
2022-12-31T21:16:48.890Z,37.95
2022-12-31T21:19:16.733Z,37.78
2022-12-31T21:21:44.521Z,37.59
2022-12-31T21:24:12.468Z,37.29
2022-12-31T21:26:40.237Z,37.07
2022-12-31T21:29:08.106Z,37.38
2022-12-31T21:31:37.252Z,37.27
2022-12-31T21:34:05.089Z,37.24
2022-12-31T21:36:33.029Z,37.17
2022-12-31T21:39:00.943Z,37.22
2022-12-31T21:41:46.123Z,37.11
2022-12-31T21:44:13.939Z,37.08
2022-12-31T21:47:15.874Z,36.95
2022-12-31T21:49:30.896Z,36.86
2022-12-31T21:52:16.489Z,37.56
2022-12-31T21:55:01.810Z,37.08
2022-12-31T21:57:29.635Z,37.74
2022-12-31T22:00:41.806Z,37.67
2022-12-31T22:03:25.123Z,37.72
2022-12-31T22:05:55.724Z,37.48
2022-12-31T22:08:24.151Z,37.93
2022-12-31T22:10:52.995Z,38.22
2022-12-31T22:13:21.289Z,37.71
2022-12-31T22:15:54.039Z,37.96
2022-12-31T22:18:26.179Z,38.22
2022-12-31T22:21:02.057Z,36.68
2022-12-31T22:23:30.204Z,37.55
2022-12-31T22:25:58.062Z,37.30
2022-12-31T22:28:41.368Z,37.37
2022-12-31T22:31:10.188Z,37.07
2022-12-31T22:33:39.615Z,36.85
2022-12-31T22:36:11.946Z,36.49
2022-12-31T22:38:39.915Z,36.83
2022-12-31T22:41:09.546Z,36.36
2022-12-31T22:43:39.790Z,36.55
2022-12-31T22:46:09.879Z,36.45
2022-12-31T22:48:39.518Z,36.60
2022-12-31T22:51:07.817Z,36.33
2022-12-31T22:53:36.218Z,36.84
2022-12-31T22:56:04.139Z,36.67
2022-12-31T22:58:32.195Z,37.21
2022-12-31T23:01:00.101Z,36.74
2022-12-31T23:03:28.108Z,37.38
2022-12-31T23:05:57.347Z,37.33
2022-12-31T23:08:25.293Z,37.59
2022-12-31T23:11:00.264Z,37.09
2022-12-31T23:13:50.719Z,37.53
2022-12-31T23:16:37.107Z,37.96
2022-12-31T23:19:22.982Z,37.54
2022-12-31T23:22:10.293Z,37.58
2022-12-31T23:24:38.882Z,37.38
2022-12-31T23:27:07.930Z,37.66
2022-12-31T23:29:43.993Z,36.52
2022-12-31T23:32:14.970Z,36.70
2022-12-31T23:34:44.247Z,36.76
2022-12-31T23:37:14.118Z,36.25
2022-12-31T23:39:42.513Z,36.13
2022-12-31T23:42:10.367Z,36.23
2022-12-31T23:44:38.175Z,36.14
2022-12-31T23:47:06.127Z,36.38
2022-12-31T23:49:33.898Z,36.21
2022-12-31T23:52:01.783Z,36.49
2022-12-31T23:54:30.947Z,36.19
2022-12-31T23:56:58.765Z,36.37
2022-12-31T23:59:26.552Z,35.82
